Time;durP1;ratioP1;P1;durP2;ratioP2;P2;SDS_P1;SDS_P2;PMS_P1;PMS_P2;Temp;Humidity;BMP_temperature;BMP_pressure;BME280_temperature;BME280_humidity;BME280_pressure;Samples;Min_cycle;Max_cycle;Signal;HPM_P1;HPM_P2
2023/11/17 00:02:19;;;;;;;1.67;0.90;;;20.70;60.30;;;;;;5085831;28;20028;-35
2023/11/17 00:04:45;;;;;;;2.60;0.90;;;20.70;60.00;;;;;;5080811;28;20039;-36
2023/11/17 00:07:11;;;;;;;3.88;0.80;;;20.70;59.90;;;;;;5082986;28;20897;-36
2023/11/17 00:09:38;;;;;;;1.77;0.65;;;20.70;60.60;;;;;;5082843;28;20074;-36
2023/11/17 00:12:05;;;;;;;1.95;0.88;;;20.70;59.90;;;;;;5082134;28;20066;-35
2023/11/17 00:14:32;;;;;;;2.13;0.75;;;20.70;59.90;;;;;;5082396;28;20033;-36
2023/11/17 00:16:58;;;;;;;2.40;0.70;;;20.70;59.90;;;;;;5082880;28;20461;-36
2023/11/17 00:19:24;;;;;;;1.20;0.65;;;20.60;59.90;;;;;;5082319;28;20066;-36
2023/11/17 00:21:51;;;;;;;1.65;0.70;;;20.60;59.90;;;;;;5084350;28;20021;-36
2023/11/17 00:24:17;;;;;;;1.60;0.73;;;20.60;59.90;;;;;;5085524;28;20027;-36
2023/11/17 00:26:44;;;;;;;2.05;0.80;;;20.60;59.90;;;;;;5081334;28;20036;-36
2023/11/17 00:29:10;;;;;;;2.70;0.93;;;20.60;59.90;;;;;;5082505;28;20078;-36
2023/11/17 00:31:36;;;;;;;1.80;0.82;;;20.60;60.00;;;;;;5080403;28;20048;-36
2023/11/17 00:34:03;;;;;;;2.45;0.88;;;20.60;59.90;;;;;;5082401;28;20549;-35
2023/11/17 00:36:29;;;;;;;0.98;0.63;;;20.50;59.80;;;;;;5083232;28;20053;-36
2023/11/17 00:38:56;;;;;;;1.92;0.85;;;20.50;59.90;;;;;;5081856;28;20056;-37
2023/11/17 00:41:22;;;;;;;1.95;0.68;;;20.50;59.90;;;;;;5081351;28;20040;-36
2023/11/17 00:43:48;;;;;;;1.38;0.77;;;20.50;59.90;;;;;;5080634;28;20040;-35
2023/11/17 00:46:14;;;;;;;1.15;0.80;;;20.50;59.90;;;;;;5082227;28;20025;-35
2023/11/17 00:48:40;;;;;;;1.60;0.98;;;20.50;59.90;;;;;;5081993;28;20026;-36
2023/11/17 00:51:06;;;;;;;1.35;0.80;;;20.50;59.90;;;;;;5082624;28;20035;-35
2023/11/17 00:53:33;;;;;;;1.42;0.90;;;20.50;60.00;;;;;;5086779;28;20059;-35
2023/11/17 00:56:01;;;;;;;2.20;0.82;;;20.50;60.00;;;;;;5082444;28;20021;-35
2023/11/17 00:58:27;;;;;;;2.38;1.13;;;20.40;59.90;;;;;;5081416;28;20036;-35
2023/11/17 01:00:56;;;;;;;1.98;0.90;;;20.40;60.00;;;;;;5086304;28;20024;-35
2023/11/17 01:03:22;;;;;;;1.50;1.00;;;20.40;60.00;;;;;;5085556;28;20111;-35
2023/11/17 01:05:49;;;;;;;2.60;1.05;;;20.40;60.00;;;;;;5085885;28;20103;-36
2023/11/17 01:08:15;;;;;;;3.03;1.10;;;20.40;60.00;;;;;;5086165;28;20119;-36
2023/11/17 01:10:42;;;;;;;;;;;20.40;60.00;;;;;;5085742;28;20032;-35
2023/11/17 01:13:09;;;;;;;1.20;0.73;;;20.40;60.00;;;;;;5085710;28;19984;-35
2023/11/17 01:15:36;;;;;;;2.33;0.90;;;20.30;60.00;;;;;;5085688;28;20112;-35
2023/11/17 01:18:05;;;;;;;;;;;20.30;60.10;;;;;;5085419;28;20117;-35
2023/11/17 01:20:40;;;;;;;1.77;0.80;;;20.30;60.10;;;;;;5069205;28;19908;-35
2023/11/17 01:23:10;;;;;;;2.63;0.90;;;20.30;60.20;;;;;;5085512;28;20036;-35
2023/11/17 01:25:37;;;;;;;2.63;1.13;;;20.30;61.00;;;;;;5084748;28;20036;-35
2023/11/17 01:28:09;;;;;;;1.98;1.00;;;20.30;60.30;;;;;;5085411;28;20051;-34
2023/11/17 01:30:41;;;;;;;1.95;1.00;;;20.20;60.30;;;;;;5085402;28;20373;-37
2023/11/17 01:33:14;;;;;;;1.70;0.90;;;20.20;60.30;;;;;;5085653;28;20074;-35
2023/11/17 01:35:43;;;;;;;1.48;0.80;;;20.20;60.30;;;;;;5084752;28;20029;-35
2023/11/17 01:38:12;;;;;;;2.67;1.10;;;20.20;60.30;;;;;;5077982;28;20032;-35
2023/11/17 01:40:39;;;;;;;2.22;0.93;;;20.20;60.40;;;;;;5085148;28;20021;-35
2023/11/17 01:43:11;;;;;;;1.70;0.93;;;20.20;60.40;;;;;;5085343;28;20045;-35
2023/11/17 01:45:39;;;;;;;2.35;1.10;;;20.20;60.40;;;;;;5085151;27;20028;-35
2023/11/17 01:48:07;;;;;;;2.25;1.00;;;20.20;60.50;;;;;;5085537;28;20036;-34
2023/11/17 01:50:35;;;;;;;2.15;1.00;;;20.20;60.50;;;;;;5082899;28;20685;-35
2023/11/17 01:53:08;;;;;;;1.73;1.02;;;20.10;60.60;;;;;;5084949;28;20044;-34
2023/11/17 01:55:37;;;;;;;2.00;1.00;;;20.10;60.50;;;;;;5083105;28;20039;-35
2023/11/17 01:58:04;;;;;;;1.23;0.80;;;20.10;60.50;;;;;;5083876;28;20044;-35
2023/11/17 02:00:31;;;;;;;;;;;20.10;60.60;;;;;;5075968;28;20036;-35
2023/11/17 02:03:00;;;;;;;1.30;0.85;;;20.10;60.50;;;;;;5084997;28;19935;-35
2023/11/17 02:05:27;;;;;;;1.67;0.95;;;20.00;60.50;;;;;;5084198;28;20469;-35
2023/11/17 02:07:54;;;;;;;;;;;20.00;60.60;;;;;;5078717;28;20100;-35
2023/11/17 02:10:28;;;;;;;1.98;1.00;;;20.00;60.60;;;;;;5087905;28;19971;-35
2023/11/17 02:13:06;;;;;;;1.65;0.90;;;20.00;60.60;;;;;;5076512;28;20032;-35
2023/11/17 02:15:35;;;;;;;2.13;1.20;;;20.00;60.80;;;;;;5068198;28;20040;-35
2023/11/17 02:18:04;;;;;;;2.17;1.20;;;20.00;60.80;;;;;;5100629;28;20304;-36
2023/11/17 02:20:34;;;;;;;1.98;1.00;;;19.90;60.70;;;;;;5084195;28;20036;-35
2023/11/17 02:23:10;;;;;;;2.40;1.20;;;19.90;60.70;;;;;;5090242;28;20055;-35
2023/11/17 02:25:59;;;;;;;2.00;1.00;;;19.90;60.90;;;;;;5080623;28;20031;-35
2023/11/17 02:28:35;;;;;;;1.77;0.90;;;19.90;60.90;;;;;;5084631;28;20033;-35
2023/11/17 02:31:25;;;;;;;2.35;0.98;;;19.90;60.90;;;;;;5084620;28;20084;-35
2023/11/17 02:33:56;;;;;;;2.97;1.27;;;19.90;60.90;;;;;;5085222;28;20040;-35
2023/11/17 02:36:26;;;;;;;2.30;0.80;;;19.90;60.90;;;;;;5084156;28;20024;-35
2023/11/17 02:39:36;;;;;;;1.42;0.85;;;19.90;61.00;;;;;;5077333;28;20025;-35
2023/11/17 02:41:58;;;;;;;2.60;1.25;;;19.80;60.90;;;;;;5077690;28;20074;-35
2023/11/17 02:44:29;;;;;;;1.92;1.08;;;19.80;61.00;;;;;;5083887;28;20108;-36
2023/11/17 02:47:00;;;;;;;1.75;0.85;;;19.80;61.00;;;;;;5077999;28;20087;-35
2023/11/17 02:49:52;;;;;;;1.85;1.00;;;19.80;61.10;;;;;;5083634;28;20051;-35
2023/11/17 02:52:26;;;;;;;1.83;0.90;;;19.80;61.10;;;;;;5086023;28;20027;-35
2023/11/17 02:54:55;;;;;;;2.47;1.15;;;19.80;61.10;;;;;;5076776;28;20058;-35
2023/11/17 02:57:25;;;;;;;1.63;0.77;;;19.70;61.10;;;;;;5083950;28;20039;-35
2023/11/17 02:59:53;;;;;;;2.67;1.20;;;19.80;61.30;;;;;;5084281;28;20028;-35
2023/11/17 03:02:20;;;;;;;1.77;1.00;;;19.70;61.90;;;;;;5084304;28;20091;-35
2023/11/17 03:04:54;;;;;;;;;;;19.70;61.10;;;;;;5082745;28;20017;-35
2023/11/17 03:07:21;;;;;;;1.73;1.10;;;19.70;61.20;;;;;;5083946;28;19923;-35
2023/11/17 03:09:51;;;;;;;1.95;1.33;;;19.70;61.20;;;;;;5083515;28;20021;-35
2023/11/17 03:12:19;;;;;;;1.73;1.10;;;19.70;61.30;;;;;;5083953;28;20869;-35
2023/11/17 03:14:53;;;;;;;1.80;1.10;;;19.60;61.20;;;;;;5082461;28;20035;-35
2023/11/17 03:17:20;;;;;;;1.73;1.20;;;19.60;61.30;;;;;;5084016;28;20041;-35
2023/11/17 03:19:46;;;;;;;;;;;19.60;61.30;;;;;;5083594;28;20050;-35
2023/11/17 03:22:13;;;;;;;1.70;0.98;;;19.60;61.40;;;;;;5082747;28;19916;-36
2023/11/17 03:24:41;;;;;;;;;;;19.60;61.40;;;;;;5083447;28;20032;-35
2023/11/17 03:27:11;;;;;;;1.67;1.10;;;19.50;61.30;;;;;;5082812;28;19923;-36
2023/11/17 03:29:38;;;;;;;1.10;0.80;;;19.60;61.30;;;;;;5082526;28;20159;-34
2023/11/17 03:32:07;;;;;;;3.72;1.20;;;19.50;61.40;;;;;;5083212;28;20181;-35
2023/11/17 03:34:34;;;;;;;2.25;1.08;;;19.50;61.30;;;;;;5083266;28;20047;-35
2023/11/17 03:37:03;;;;;;;1.73;1.10;;;19.50;61.50;;;;;;5083252;28;20059;-35
2023/11/17 03:39:33;;;;;;;1.73;0.95;;;19.50;61.40;;;;;;5083058;28;20135;-35
2023/11/17 03:42:01;;;;;;;3.25;1.20;;;19.50;61.40;;;;;;5083060;28;20094;-35
2023/11/17 03:44:34;;;;;;;3.20;1.02;;;19.50;61.50;;;;;;5082015;28;20053;-35
2023/11/17 03:47:01;;;;;;;2.90;1.10;;;19.40;61.40;;;;;;5083223;28;20044;-35
2023/11/17 03:49:28;;;;;;;2.97;0.90;;;19.50;61.50;;;;;;5082972;28;20448;-35
2023/11/17 03:51:56;;;;;;;1.80;0.93;;;19.40;61.40;;;;;;5085578;28;20025;-35
2023/11/17 03:54:27;;;;;;;1.85;1.02;;;19.40;61.50;;;;;;5085197;28;20043;-35
2023/11/17 03:56:56;;;;;;;1.63;1.00;;;19.40;61.50;;;;;;5080799;28;20021;-35
2023/11/17 03:59:24;;;;;;;2.05;0.90;;;19.40;61.50;;;;;;5082446;28;20028;-35
2023/11/17 04:01:52;;;;;;;1.90;1.10;;;19.40;61.50;;;;;;5082932;28;20029;-35
2023/11/17 04:04:19;;;;;;;2.03;1.20;;;19.40;61.50;;;;;;5082606;28;20039;-35
2023/11/17 04:06:50;;;;;;;1.80;1.10;;;19.40;61.50;;;;;;5082848;28;20036;-35
2023/11/17 04:09:20;;;;;;;2.53;1.33;;;19.40;61.50;;;;;;5082722;28;20028;-34
2023/11/17 04:11:48;;;;;;;2.35;1.20;;;19.30;61.50;;;;;;5082351;28;20024;-35
2023/11/17 04:14:15;;;;;;;;;;;19.30;61.50;;;;;;5083370;28;20039;-35
2023/11/17 04:16:42;;;;;;;2.97;1.10;;;19.30;61.50;;;;;;5082877;28;19923;-35
2023/11/17 04:19:09;;;;;;;2.15;0.98;;;19.30;61.60;;;;;;5082271;28;20037;-35
2023/11/17 04:21:35;;;;;;;2.38;1.45;;;19.30;61.60;;;;;;5081358;28;20153;-35
2023/11/17 04:24:02;;;;;;;2.75;1.25;;;19.30;61.60;;;;;;5088037;28;20043;-35
2023/11/17 04:26:32;;;;;;;1.85;1.08;;;19.30;61.60;;;;;;5080487;28;20020;-38
2023/11/17 04:28:58;;;;;;;1.70;1.15;;;19.20;62.30;;;;;;5082730;28;20486;-35
2023/11/17 04:31:24;;;;;;;2.43;1.00;;;19.30;61.60;;;;;;5081952;28;20048;-35
2023/11/17 04:33:50;;;;;;;3.90;1.00;;;19.20;62.10;;;;;;5082264;28;20362;-35
2023/11/17 04:36:17;;;;;;;2.35;1.13;;;19.20;62.40;;;;;;5082543;28;20377;-35
2023/11/17 04:38:43;;;;;;;2.50;1.40;;;19.20;61.60;;;;;;5078826;28;20033;-35
2023/11/17 04:41:12;;;;;;;2.65;1.23;;;19.20;61.70;;;;;;5082521;28;20043;-35
2023/11/17 04:43:38;;;;;;;2.42;1.25;;;19.20;61.70;;;;;;5081807;28;20045;-35
2023/11/17 04:46:06;;;;;;;1.70;1.13;;;19.20;61.70;;;;;;5082433;28;20161;-35
2023/11/17 04:48:32;;;;;;;1.63;1.02;;;19.20;61.80;;;;;;5081795;28;20480;-35
2023/11/17 04:50:59;;;;;;;2.08;1.40;;;19.20;61.80;;;;;;5082364;28;20028;-35
2023/11/17 04:53:25;;;;;;;2.40;1.27;;;19.10;61.80;;;;;;5087289;28;20131;-35
2023/11/17 04:55:52;;;;;;;2.08;1.20;;;19.10;61.80;;;;;;5082297;28;20033;-35
2023/11/17 04:58:18;;;;;;;1.77;1.38;;;19.10;61.80;;;;;;5081551;28;20039;-36
2023/11/17 05:00:47;;;;;;;1.90;1.13;;;19.10;61.90;;;;;;5081867;28;20043;-35
2023/11/17 05:03:13;;;;;;;1.55;1.10;;;19.10;61.90;;;;;;5082306;28;20089;-35
2023/11/17 05:05:40;;;;;;;2.63;1.10;;;19.10;61.90;;;;;;5081072;28;20088;-35
2023/11/17 05:08:06;;;;;;;3.50;1.30;;;19.00;61.80;;;;;;5081411;28;20765;-35
2023/11/17 05:10:32;;;;;;;2.00;1.38;;;19.00;61.90;;;;;;5081773;28;20025;-35
2023/11/17 05:12:58;;;;;;;1.70;1.13;;;19.00;61.90;;;;;;5081926;28;20052;-35
2023/11/17 05:15:24;;;;;;;2.00;1.15;;;19.00;61.90;;;;;;5081715;28;20029;-35
2023/11/17 05:17:50;;;;;;;2.38;1.30;;;19.00;62.00;;;;;;5082201;28;20033;-35
2023/11/17 05:20:18;;;;;;;1.52;1.23;;;18.90;61.90;;;;;;5081749;28;20024;-35
2023/11/17 05:22:45;;;;;;;1.70;0.98;;;19.00;62.00;;;;;;5087269;28;20029;-35
2023/11/17 05:25:11;;;;;;;1.85;1.02;;;19.00;62.00;;;;;;5082018;28;20058;-35
2023/11/17 05:27:38;;;;;;;3.08;1.27;;;19.00;62.00;;;;;;5077896;28;20041;-35
2023/11/17 05:30:06;;;;;;;2.58;1.52;;;19.00;62.10;;;;;;5076366;28;20036;-35
2023/11/17 05:32:35;;;;;;;2.03;1.20;;;19.00;62.10;;;;;;5072523;28;20060;-35
2023/11/17 05:35:02;;;;;;;2.80;1.20;;;18.90;62.00;;;;;;5081929;28;20025;-35
2023/11/17 05:37:28;;;;;;;2.20;1.30;;;18.90;62.70;;;;;;5081175;28;20033;-35
2023/11/17 05:39:55;;;;;;;2.00;1.13;;;18.90;62.00;;;;;;5082051;28;20028;-35
2023/11/17 05:42:21;;;;;;;2.20;1.30;;;18.90;62.10;;;;;;5081459;28;20036;-35
2023/11/17 05:44:48;;;;;;;2.17;1.40;;;18.90;62.10;;;;;;5081753;28;20044;-35
2023/11/17 05:47:14;;;;;;;1.60;1.13;;;18.80;62.10;;;;;;5085072;28;20025;-35
2023/11/17 05:49:43;;;;;;;2.28;1.27;;;18.80;62.10;;;;;;5085128;28;20219;-35
2023/11/17 05:52:09;;;;;;;2.20;1.00;;;18.80;62.90;;;;;;5079293;28;20144;-35
2023/11/17 05:54:43;;;;;;;1.83;1.10;;;18.80;62.20;;;;;;5086317;28;20742;-35
2023/11/17 05:57:17;;;;;;;2.72;1.25;;;18.80;62.20;;;;;;5079957;28;20752;-35
2023/11/17 05:59:45;;;;;;;2.22;1.10;;;18.80;62.20;;;;;;5084094;28;20024;-35
2023/11/17 06:02:11;;;;;;;1.75;1.23;;;18.80;62.20;;;;;;5084809;28;20089;-35
2023/11/17 06:04:37;;;;;;;3.13;1.25;;;18.80;62.30;;;;;;5084756;28;20024;-35
2023/11/17 06:07:04;;;;;;;2.22;1.20;;;18.80;62.30;;;;;;5085035;28;20032;-35
2023/11/17 06:09:30;;;;;;;2.15;1.00;;;18.80;62.30;;;;;;5083299;28;20013;-35
2023/11/17 06:11:56;;;;;;;3.22;1.35;;;18.70;62.30;;;;;;5085043;28;20078;-35
2023/11/17 06:14:23;;;;;;;3.00;1.40;;;18.70;62.30;;;;;;5084061;28;20035;-35
2023/11/17 06:16:55;;;;;;;2.22;1.33;;;18.70;62.80;;;;;;5084446;28;20020;-35
2023/11/17 06:19:22;;;;;;;2.28;1.20;;;18.70;62.30;;;;;;5087598;28;20062;-35
2023/11/17 06:21:48;;;;;;;2.67;1.40;;;18.70;62.30;;;;;;5118274;28;20400;-35
2023/11/17 06:24:14;;;;;;;2.20;1.30;;;18.70;62.30;;;;;;5088801;28;20040;-35
2023/11/17 06:26:45;;;;;;;1.73;1.17;;;18.70;62.40;;;;;;5083948;28;20037;-35
2023/11/17 06:29:15;;;;;;;2.80;1.38;;;18.70;62.40;;;;;;5084322;28;20029;-35
2023/11/17 06:31:44;;;;;;;3.35;1.13;;;18.70;62.40;;;;;;5085629;28;20116;-34
2023/11/17 06:34:10;;;;;;;2.30;1.35;;;18.70;63.10;;;;;;5084333;28;20120;-35
2023/11/17 06:36:40;;;;;;;2.20;1.50;;;18.70;62.40;;;;;;5083892;28;20058;-35
2023/11/17 06:39:14;;;;;;;2.63;1.30;;;18.60;62.30;;;;;;5084254;28;20033;-35
2023/11/17 06:41:47;;;;;;;2.92;1.40;;;18.60;62.40;;;;;;5092975;28;20951;-35
2023/11/17 06:44:14;;;;;;;1.63;1.02;;;18.60;62.40;;;;;;5084108;28;20049;-35
2023/11/17 06:46:41;;;;;;;1.73;1.13;;;18.60;62.40;;;;;;5084084;28;20039;-35
2023/11/17 06:49:10;;;;;;;;;;;18.60;62.40;;;;;;5083558;28;20029;-35
2023/11/17 06:51:40;;;;;;;2.58;1.42;;;18.60;62.50;;;;;;5083871;28;19988;-35
2023/11/17 06:54:10;;;;;;;2.30;1.60;;;18.60;62.50;;;;;;5084040;28;20059;-35
2023/11/17 06:56:40;;;;;;;2.67;1.38;;;18.60;62.50;;;;;;5082563;28;20037;-35
2023/11/17 06:59:16;;;;;;;3.50;1.35;;;18.60;62.50;;;;;;5083102;28;20029;-35
2023/11/17 07:01:46;;;;;;;1.50;1.20;;;18.50;62.40;;;;;;5083431;28;20039;-35
2023/11/17 07:04:12;;;;;;;2.53;1.27;;;18.50;62.50;;;;;;5083879;28;20032;-35
2023/11/17 07:06:39;;;;;;;1.98;1.38;;;18.50;62.50;;;;;;5083369;28;20091;-35
2023/11/17 07:09:23;;;;;;;1.88;1.30;;;18.50;62.50;;;;;;5069478;28;20033;-36
2023/11/17 07:11:51;;;;;;;2.45;1.40;;;18.50;62.50;;;;;;5083127;28;20036;-35
2023/11/17 07:14:19;;;;;;;2.47;1.40;;;18.50;62.60;;;;;;5083831;28;20024;-35
2023/11/17 07:16:49;;;;;;;2.85;1.52;;;18.50;62.60;;;;;;5083539;28;20036;-35
2023/11/17 07:19:16;;;;;;;2.03;1.20;;;18.50;62.60;;;;;;5083615;28;20196;-36
2023/11/17 07:21:42;;;;;;;2.00;1.27;;;18.40;62.60;;;;;;5083728;28;20037;-35
2023/11/17 07:24:10;;;;;;;3.45;1.40;;;18.40;62.60;;;;;;5088276;28;20481;-35
2023/11/17 07:26:37;;;;;;;2.58;1.30;;;18.40;62.50;;;;;;5082988;28;20040;-35
2023/11/17 07:29:04;;;;;;;1.63;1.30;;;18.40;62.50;;;;;;5083507;28;20037;-35
2023/11/17 07:31:40;;;;;;;2.17;1.52;;;18.40;62.60;;;;;;5083315;28;20062;-36
2023/11/17 07:34:15;;;;;;;2.90;1.35;;;18.40;62.60;;;;;;5083022;28;20032;-35
2023/11/17 07:36:44;;;;;;;1.95;1.23;;;18.40;62.70;;;;;;5082958;28;20442;-35
2023/11/17 07:39:13;;;;;;;2.83;1.50;;;18.40;62.70;;;;;;5083302;28;20084;-35
2023/11/17 07:41:39;;;;;;;3.15;1.50;;;18.40;62.70;;;;;;5082352;28;20032;-35
2023/11/17 07:44:08;;;;;;;4.00;1.63;;;18.40;62.70;;;;;;5082791;28;20060;-35
2023/11/17 07:46:35;;;;;;;2.47;1.30;;;18.40;62.70;;;;;;5082158;28;20040;-35
2023/11/17 07:49:02;;;;;;;2.83;1.50;;;18.30;62.70;;;;;;5082652;28;20028;-35
2023/11/17 07:51:28;;;;;;;1.63;1.13;;;18.30;62.60;;;;;;5082431;28;20056;-35
2023/11/17 07:53:54;;;;;;;2.60;1.50;;;18.30;62.60;;;;;;5088873;28;20037;-35
2023/11/17 07:56:21;;;;;;;1.92;1.30;;;18.30;62.70;;;;;;5082700;28;20055;-35
2023/11/17 07:58:48;;;;;;;2.70;1.63;;;18.30;62.70;;;;;;5082071;28;20028;-35
2023/11/17 08:01:15;;;;;;;2.90;1.30;;;18.30;62.70;;;;;;5083063;28;20039;-35
2023/11/17 08:03:43;;;;;;;1.90;1.30;;;18.30;62.80;;;;;;5082307;28;20028;-34
2023/11/17 08:06:10;;;;;;;2.58;1.48;;;18.30;62.70;;;;;;5082689;28;20029;-35
2023/11/17 08:08:40;;;;;;;1.58;1.10;;;18.30;62.80;;;;;;5082068;28;20040;-35
2023/11/17 08:11:09;;;;;;;2.03;1.40;;;18.30;62.80;;;;;;5082690;28;20028;-35
2023/11/17 08:13:37;;;;;;;2.97;1.33;;;18.30;62.80;;;;;;5082069;28;20066;-35
2023/11/17 08:16:08;;;;;;;3.22;1.50;;;18.30;62.80;;;;;;5069387;28;20040;-34
2023/11/17 08:18:36;;;;;;;2.10;1.48;;;18.20;62.80;;;;;;5079980;28;20025;-34
2023/11/17 08:21:03;;;;;;;2.63;1.40;;;18.20;62.90;;;;;;5070107;28;20056;-35
2023/11/17 08:23:29;;;;;;;1.85;1.40;;;18.20;62.90;;;;;;5082544;28;20024;-35
2023/11/17 08:25:55;;;;;;;4.68;1.33;;;18.20;62.90;;;;;;5076824;28;20060;-35
2023/11/17 08:28:22;;;;;;;1.80;1.13;;;18.20;62.90;;;;;;5063695;28;20048;-35
2023/11/17 08:30:49;;;;;;;2.47;1.50;;;18.20;63.00;;;;;;5075642;28;20103;-35
2023/11/17 08:33:15;;;;;;;2.70;1.40;;;18.20;63.00;;;;;;5075852;28;20032;-35
2023/11/17 08:35:41;;;;;;;2.75;1.27;;;18.20;63.00;;;;;;5074682;28;20033;-35
2023/11/17 08:38:07;;;;;;;2.97;1.47;;;18.20;63.00;;;;;;5074837;28;20032;-35
2023/11/17 08:40:34;;;;;;;2.20;1.17;;;18.20;63.00;;;;;;5074415;28;20067;-35
2023/11/17 08:43:01;;;;;;;2.35;1.30;;;18.20;63.00;;;;;;5083088;28;20126;-35
2023/11/17 08:45:27;;;;;;;1.92;1.27;;;18.20;63.00;;;;;;5072911;28;20028;-35
2023/11/17 08:47:54;;;;;;;2.63;1.33;;;18.10;63.00;;;;;;5064423;28;20037;-35
2023/11/17 08:50:21;;;;;;;2.28;1.40;;;18.10;63.00;;;;;;5078255;28;20025;-35
2023/11/17 08:52:47;;;;;;;2.38;1.20;;;18.10;63.10;;;;;;5085577;28;20024;-35
2023/11/17 08:55:14;;;;;;;2.15;1.50;;;18.10;63.10;;;;;;5074443;28;20473;-35
2023/11/17 08:57:44;;;;;;;3.58;1.40;;;18.10;63.10;;;;;;5071968;28;20058;-35
2023/11/17 09:00:24;;;;;;;2.40;1.40;;;18.10;63.10;;;;;;5063889;28;20432;-35
2023/11/17 09:02:51;;;;;;;3.20;1.50;;;18.10;63.20;;;;;;5082203;28;20032;-35
2023/11/17 09:05:18;;;;;;;2.45;1.63;;;18.10;63.40;;;;;;5082706;28;20445;-35
2023/11/17 09:07:46;;;;;;;2.08;1.30;;;18.00;63.20;;;;;;5069953;28;20048;-35
2023/11/17 09:10:14;;;;;;;2.10;1.30;;;18.00;63.20;;;;;;5077376;28;20044;-35
2023/11/17 09:12:43;;;;;;;2.75;1.42;;;18.10;63.20;;;;;;5081238;28;20043;-35
2023/11/17 09:15:09;;;;;;;1.95;1.30;;;18.00;63.20;;;;;;5081775;28;20052;-34
2023/11/17 09:17:47;;;;;;;1.58;1.05;;;18.10;63.30;;;;;;5081332;28;20134;-34
2023/11/17 09:20:14;;;;;;;2.92;1.55;;;18.00;63.30;;;;;;5082597;28;20396;-34
2023/11/17 09:22:46;;;;;;;2.65;1.50;;;18.00;63.30;;;;;;5090255;28;20063;-35
2023/11/17 09:25:16;;;;;;;1.80;1.25;;;18.00;63.30;;;;;;5082577;28;20033;-35
2023/11/17 09:27:53;;;;;;;1.95;1.30;;;18.00;63.30;;;;;;5068966;28;20040;-35
2023/11/17 09:30:19;;;;;;;2.10;1.40;;;18.00;63.40;;;;;;5083892;28;20029;-34
2023/11/17 09:32:57;;;;;;;2.13;1.48;;;18.00;63.40;;;;;;5081691;28;20029;-35
2023/11/17 09:35:26;;;;;;;1.70;1.38;;;18.00;63.40;;;;;;5082938;28;20043;-37
2023/11/17 09:37:53;;;;;;;1.70;1.20;;;18.00;63.30;;;;;;5077923;28;20039;-35
2023/11/17 09:40:23;;;;;;;1.88;1.20;;;17.90;63.30;;;;;;5085039;28;20032;-35
2023/11/17 09:42:53;;;;;;;2.42;1.40;;;17.90;63.40;;;;;;5081382;28;20125;-35
2023/11/17 09:45:21;;;;;;;1.92;1.35;;;17.90;63.40;;;;;;5080962;28;20037;-35
2023/11/17 09:47:50;;;;;;;1.52;1.23;;;17.90;63.30;;;;;;5078132;28;20115;-37
2023/11/17 09:50:18;;;;;;;3.10;1.30;;;17.90;63.40;;;;;;5077323;28;20024;-35
2023/11/17 09:52:47;;;;;;;2.22;1.50;;;17.90;63.40;;;;;;5077088;28;20037;-35
2023/11/17 09:55:14;;;;;;;1.92;1.40;;;17.90;63.50;;;;;;5114337;28;20043;-35
2023/11/17 09:57:41;;;;;;;1.30;1.20;;;17.90;63.40;;;;;;5084811;28;20032;-34
2023/11/17 10:00:17;;;;;;;;;;;17.90;63.50;;;;;;5085765;28;20033;-35
2023/11/17 10:02:50;;;;;;;2.53;1.30;;;17.90;63.50;;;;;;5081364;28;20014;-34
2023/11/17 10:05:17;;;;;;;2.25;1.25;;;17.90;63.50;;;;;;5076953;28;20043;-35
2023/11/17 10:07:48;;;;;;;2.22;1.25;;;17.90;63.50;;;;;;5077672;28;20074;-34
2023/11/17 10:10:14;;;;;;;1.98;1.10;;;17.90;63.60;;;;;;5077559;28;20413;-35
2023/11/17 10:12:43;;;;;;;3.33;1.50;;;17.80;63.50;;;;;;5069595;28;20044;-35
2023/11/17 10:15:12;;;;;;;1.90;1.25;;;17.80;63.50;;;;;;5077202;28;20664;-35
2023/11/17 10:17:42;;;;;;;2.30;1.40;;;17.90;63.60;;;;;;5075506;28;20047;-35
2023/11/17 10:20:17;;;;;;;2.25;1.20;;;17.80;63.50;;;;;;5111011;28;20470;-39
2023/11/17 10:22:50;;;;;;;2.53;1.02;;;17.80;63.60;;;;;;5092948;28;20020;-35
2023/11/17 10:25:19;;;;;;;1.92;1.40;;;17.80;63.60;;;;;;5074385;28;20029;-40
2023/11/17 10:27:49;;;;;;;2.33;1.17;;;17.80;63.60;;;;;;5078699;28;20063;-34
2023/11/17 10:30:16;;;;;;;2.78;1.70;;;17.80;63.60;;;;;;5080417;28;20028;-38
2023/11/17 10:32:47;;;;;;;1.70;1.33;;;17.80;63.60;;;;;;5106115;28;20067;-34
2023/11/17 10:35:23;;;;;;;2.88;1.50;;;17.80;63.70;;;;;;5081911;28;20063;-35
2023/11/17 10:37:55;;;;;;;1.60;1.40;;;17.80;63.70;;;;;;5077061;28;20092;-34
2023/11/17 10:40:25;;;;;;;3.55;1.40;;;17.80;63.70;;;;;;5069028;28;20112;-34
2023/11/17 10:43:04;;;;;;;1.95;1.48;;;17.80;63.70;;;;;;5073192;28;20049;-35
2023/11/17 10:45:32;;;;;;;1.52;1.30;;;17.80;63.70;;;;;;5073960;28;20033;-34
2023/11/17 10:47:59;;;;;;;2.38;1.33;;;17.80;63.70;;;;;;5070861;28;20058;-34
2023/11/17 10:50:28;;;;;;;3.28;1.40;;;17.70;63.70;;;;;;5086586;28;20032;-34
2023/11/17 10:52:57;;;;;;;4.15;1.35;;;17.70;63.70;;;;;;5088106;28;20095;-34
2023/11/17 10:55:33;;;;;;;3.67;1.52;;;17.70;63.70;;;;;;5083405;28;20025;-34
2023/11/17 10:58:13;;;;;;;2.00;1.40;;;17.70;63.80;;;;;;5077650;28;20393;-35
2023/11/17 11:00:39;;;;;;;3.50;1.50;;;17.70;63.80;;;;;;5073615;28;20063;-35
2023/11/17 11:03:10;;;;;;;1.40;1.10;;;17.70;64.60;;;;;;5109650;28;20042;-35
2023/11/17 11:05:40;;;;;;;1.40;1.30;;;17.70;63.80;;;;;;5075487;28;20040;-35
2023/11/17 11:08:07;;;;;;;1.42;1.30;;;17.70;63.80;;;;;;5072303;28;20059;-35
2023/11/17 11:10:34;;;;;;;2.10;1.40;;;17.70;63.80;;;;;;5072487;28;20512;-35
2023/11/17 11:13:03;;;;;;;1.45;1.30;;;17.70;63.80;;;;;;5071681;28;20036;-34
2023/11/17 11:15:32;;;;;;;2.03;1.30;;;17.70;63.80;;;;;;5094983;28;20092;-34
2023/11/17 11:18:03;;;;;;;2.83;1.55;;;17.70;63.80;;;;;;5075943;28;20035;-34
2023/11/17 11:20:31;;;;;;;3.58;1.40;;;17.70;63.90;;;;;;5075480;28;20131;-34
2023/11/17 11:22:57;;;;;;;1.88;1.38;;;17.70;63.90;;;;;;5085202;28;20017;-34
2023/11/17 11:25:23;;;;;;;2.80;1.42;;;17.70;63.90;;;;;;5082925;28;20372;-34
2023/11/17 11:27:49;;;;;;;3.85;1.40;;;17.60;63.90;;;;;;5115572;28;20043;-35
2023/11/17 11:30:15;;;;;;;1.35;1.23;;;17.60;63.90;;;;;;5083165;28;20028;-35
2023/11/17 11:32:44;;;;;;;1.67;1.35;;;17.60;63.90;;;;;;5080604;28;20033;-34
2023/11/17 11:35:10;;;;;;;3.17;1.40;;;17.60;63.90;;;;;;5075722;28;20095;-34
2023/11/17 11:37:38;;;;;;;2.10;1.38;;;17.60;64.00;;;;;;5081224;28;20036;-34
2023/11/17 11:40:04;;;;;;;;;;;17.60;63.90;;;;;;5082311;28;20036;-34
2023/11/17 11:42:31;;;;;;;2.00;1.15;;;17.60;64.00;;;;;;5081548;28;19916;-34
2023/11/17 11:44:57;;;;;;;1.35;1.15;;;17.60;63.90;;;;;;5082632;28;20096;-35
2023/11/17 11:47:24;;;;;;;1.92;1.48;;;17.60;63.90;;;;;;5069685;28;20068;-34
2023/11/17 11:49:52;;;;;;;2.08;1.20;;;17.60;63.90;;;;;;5115032;28;20101;-35
2023/11/17 11:52:28;;;;;;;2.55;1.27;;;17.60;63.90;;;;;;5072815;28;20037;-34
2023/11/17 11:54:55;;;;;;;2.10;1.10;;;17.60;63.90;;;;;;5069142;28;20120;-35
2023/11/17 11:57:28;;;;;;;1.42;1.20;;;17.60;64.00;;;;;;5081657;28;20020;-35
2023/11/17 12:00:12;;;;;;;1.73;1.30;;;17.60;64.00;;;;;;5075724;28;20021;-35
2023/11/17 12:02:59;;;;;;;1.92;1.20;;;17.60;64.00;;;;;;5081921;28;20025;-35
2023/11/17 12:05:30;;;;;;;1.08;0.95;;;17.50;64.00;;;;;;5079978;28;20029;-35
2023/11/17 12:08:03;;;;;;;2.47;1.38;;;17.50;64.10;;;;;;5070727;28;20033;-35
2023/11/17 12:11:01;;;;;;;2.53;1.38;;;17.50;64.10;;;;;;5081911;28;20024;-35
2023/11/17 12:13:43;;;;;;;1.63;1.02;;;17.50;64.10;;;;;;5074453;28;20770;-36
2023/11/17 12:16:20;;;;;;;2.40;1.02;;;17.50;64.80;;;;;;5070997;28;20444;-34
2023/11/17 12:19:07;;;;;;;2.15;1.30;;;17.50;64.20;;;;;;5081762;28;20021;-39
2023/11/17 12:21:39;;;;;;;1.33;1.17;;;17.50;64.20;;;;;;5040127;28;20149;-35
2023/11/17 12:24:07;;;;;;;1.35;1.10;;;17.50;64.20;;;;;;5040812;28;20041;-36
2023/11/17 12:26:34;;;;;;;1.90;1.10;;;17.50;64.20;;;;;;5041627;28;20046;-35
2023/11/17 12:29:01;;;;;;;1.67;1.15;;;17.50;64.20;;;;;;5040134;28;20048;-34
2023/11/17 12:31:27;;;;;;;1.90;1.27;;;17.50;64.20;;;;;;5042121;28;20024;-35
2023/11/17 12:33:54;;;;;;;1.70;1.50;;;17.50;64.20;;;;;;5040061;28;20041;-35
2023/11/17 12:36:21;;;;;;;1.55;1.27;;;17.50;64.20;;;;;;5040237;28;20036;-35
2023/11/17 12:38:51;;;;;;;;;;;17.50;64.20;;;;;;5040381;28;20093;-34
2023/11/17 12:41:17;;;;;;;1.55;1.15;;;17.50;64.20;;;;;;5040066;28;19950;-35
2023/11/17 12:43:47;;;;;;;1.88;1.27;;;17.50;64.30;;;;;;5039637;28;20208;-35
2023/11/17 12:46:13;;;;;;;2.10;1.25;;;17.50;64.30;;;;;;5040028;28;20052;-35
2023/11/17 12:48:40;;;;;;;2.28;1.30;;;17.50;64.30;;;;;;5040672;28;20041;-35
2023/11/17 12:51:06;;;;;;;1.60;1.23;;;17.50;64.30;;;;;;5042822;28;20037;-35
2023/11/17 12:53:45;;;;;;;1.85;1.50;;;17.50;64.40;;;;;;5045763;28;20557;-35
2023/11/17 12:56:12;;;;;;;1.70;1.30;;;17.40;64.30;;;;;;5042381;28;20029;-35
2023/11/17 12:58:38;;;;;;;2.67;1.60;;;17.50;64.30;;;;;;5064787;28;20033;-35
2023/11/17 13:01:14;;;;;;;1.45;1.17;;;17.40;64.30;;;;;;5086451;28;20074;-35